Time;durP1;ratioP1;P1;durP2;ratioP2;P2;SDS_P1;SDS_P2;PMS_P1;PMS_P2;Temp;Humidity;BMP_temperature;BMP_pressure;BME280_temperature;BME280_humidity;BME280_pressure;Samples;Min_cycle;Max_cycle;Signal;HPM_P1;HPM_P2
2023/10/10 00:00:27;;;;;;;12.53;5.93;;;15.70;63.00;;;16.07;46.24;95248.00;5002059;28;20442;-59
2023/10/10 00:02:55;;;;;;;16.20;5.50;;;15.70;62.20;;;16.08;46.43;95244.38;5000458;28;20454;-59
2023/10/10 00:05:33;;;;;;;9.77;4.27;;;15.70;63.00;;;16.04;46.27;95239.56;5000038;28;20840;-60
2023/10/10 00:08:05;;;;;;;8.37;4.07;;;15.70;62.50;;;16.07;46.43;95241.88;5002311;28;20445;-60
2023/10/10 00:10:34;;;;;;;14.00;4.60;;;15.70;62.80;;;16.06;46.19;95241.03;5002431;28;20960;-61
2023/10/10 00:13:07;;;;;;;9.30;4.00;;;15.70;62.70;;;16.07;46.17;95240.06;5001942;28;20450;-60
2023/10/10 00:15:37;;;;;;;5.57;3.50;;;15.70;62.10;;;16.06;46.12;95235.72;5001242;28;20827;-60
2023/10/10 00:18:10;;;;;;;12.33;4.33;;;15.70;62.10;;;16.06;46.23;95227.78;5000680;28;20452;-60
2023/10/10 00:20:41;;;;;;;6.00;3.80;;;15.70;62.60;;;16.08;46.32;95225.81;5003135;28;20524;-59
2023/10/10 00:23:10;;;;;;;8.50;3.50;;;15.70;62.80;;;16.09;45.79;95227.44;4999343;28;20601;-61
2023/10/10 00:25:42;;;;;;;15.23;3.43;;;15.70;62.10;;;16.09;46.02;95230.09;5003558;28;20450;-60
2023/10/10 00:28:18;;;;;;;6.23;3.97;;;15.70;62.10;;;16.11;45.96;95228.13;5004527;28;20474;-60
2023/10/10 00:30:46;;;;;;;10.60;4.43;;;15.80;62.20;;;16.10;45.76;95221.16;5001315;28;20482;-60
2023/10/10 00:33:16;;;;;;;9.77;3.47;;;15.80;62.10;;;16.11;45.80;95212.22;5002354;28;20458;-60
2023/10/10 00:35:44;;;;;;;8.60;3.70;;;15.70;61.80;;;16.14;45.39;95216.34;5000894;28;20844;-58
2023/10/10 00:38:17;;;;;;;12.47;3.30;;;15.80;61.10;;;16.19;45.32;95218.50;5001782;28;20461;-61
2023/10/10 00:40:47;;;;;;;11.37;3.57;;;15.80;61.20;;;16.26;45.23;95222.97;5001023;28;20557;-60
2023/10/10 00:43:17;;;;;;;6.50;2.40;;;15.90;61.50;;;16.35;45.35;95229.13;5000284;28;20528;-60
2023/10/10 00:45:51;;;;;;;5.33;3.77;;;16.00;61.70;;;16.41;45.13;95230.28;5001706;28;21001;-61
2023/10/10 00:48:22;;;;;;;9.43;3.63;;;16.00;61.10;;;16.45;44.98;95229.78;4999692;28;20442;-60
2023/10/10 00:50:53;;;;;;;12.57;3.90;;;16.00;61.10;;;16.51;44.67;95230.09;5002726;28;20489;-58
2023/10/10 00:53:21;;;;;;;11.50;3.67;;;16.10;61.10;;;16.54;44.82;95229.78;4999336;28;20764;-60
2023/10/10 00:55:56;;;;;;;11.03;3.37;;;16.10;60.80;;;16.53;44.84;95228.94;5002879;28;20557;-59
2023/10/10 00:58:35;;;;;;;6.87;2.87;;;16.10;60.80;;;16.54;44.82;95217.31;5000280;28;20511;-59
2023/10/10 01:01:07;;;;;;;14.13;3.30;;;16.10;60.90;;;16.58;44.93;95218.63;5000350;28;20549;-60
2023/10/10 01:03:35;;;;;;;10.50;4.50;;;16.20;61.30;;;16.67;44.99;95217.63;5002094;28;20849;-60
2023/10/10 01:06:06;;;;;;;12.47;3.30;;;16.20;61.50;;;16.78;44.96;95212.97;5000851;28;20537;-59
2023/10/10 01:08:57;;;;;;;12.50;3.97;;;16.40;61.70;;;16.93;45.10;95210.47;5002554;28;20612;-60
2023/10/10 01:11:24;;;;;;;23.10;3.80;;;16.50;61.60;;;17.07;44.76;95216.88;4999335;28;20501;-60
2023/10/10 01:13:53;;;;;;;17.00;4.20;;;16.60;61.70;;;17.23;44.67;95216.00;5000679;28;20882;-59
2023/10/10 01:16:24;;;;;;;9.93;2.40;;;16.80;61.30;;;17.36;44.32;95211.78;5001143;28;20590;-60
2023/10/10 01:18:57;;;;;;;7.03;3.27;;;16.90;61.20;;;17.49;44.57;95211.25;4999825;28;20503;-59
2023/10/10 01:21:32;;;;;;;6.57;3.13;;;17.00;60.90;;;17.64;44.12;95218.47;5001862;28;20535;-59
2023/10/10 01:24:06;;;;;;;8.60;2.10;;;17.10;60.70;;;17.75;44.39;95220.72;4998997;28;20450;-59
2023/10/10 01:26:38;;;;;;;7.50;2.80;;;17.30;60.50;;;17.87;44.13;95219.31;5001205;28;20469;-60
2023/10/10 01:29:18;;;;;;;9.53;3.70;;;17.40;61.00;;;17.96;43.56;95232.63;4999909;28;20509;-61
2023/10/10 01:31:48;;;;;;;9.87;3.00;;;17.50;59.70;;;18.03;43.41;95231.72;4998805;28;20488;-60
2023/10/10 01:34:30;;;;;;;10.83;3.23;;;17.60;59.30;;;18.09;43.04;95235.50;5001303;28;20458;-60
2023/10/10 01:37:02;;;;;;;20.87;3.33;;;17.70;58.80;;;18.13;42.70;95243.97;4999433;28;20600;-60
2023/10/10 01:39:47;;;;;;;11.00;3.53;;;17.70;58.70;;;18.16;42.66;95247.09;5000750;28;20449;-60
2023/10/10 01:42:17;;;;;;;6.30;2.70;;;17.80;58.60;;;18.18;42.31;95237.09;5002054;28;20501;-60
2023/10/10 01:44:44;;;;;;;8.67;3.47;;;17.80;58.40;;;18.21;42.80;95236.75;4998272;28;20446;-59
2023/10/10 01:47:26;;;;;;;10.97;3.60;;;17.80;58.50;;;18.23;42.75;95240.06;5002222;28;20481;-60
2023/10/10 01:49:54;;;;;;;13.07;3.10;;;17.80;58.40;;;18.26;42.22;95250.38;5000266;28;20803;-60
2023/10/10 01:52:23;;;;;;;16.17;3.37;;;17.80;58.30;;;18.28;42.79;95245.69;5000185;28;20473;-60
2023/10/10 01:54:53;;;;;;;7.70;3.00;;;17.90;58.40;;;18.31;42.20;95246.31;5000344;28;20482;-59
2023/10/10 01:57:24;;;;;;;7.50;2.97;;;17.90;58.20;;;18.32;42.15;95248.00;4999890;28;20960;-60
2023/10/10 01:59:58;;;;;;;6.70;2.87;;;17.90;58.20;;;18.35;42.55;95247.63;5000751;28;20482;-61
2023/10/10 02:02:27;;;;;;;10.33;2.93;;;17.90;58.20;;;18.37;42.53;95253.59;4998711;28;20635;-60
2023/10/10 02:04:56;;;;;;;9.57;2.83;;;17.90;58.20;;;18.37;42.67;95262.44;5002169;28;20457;-59
2023/10/10 02:07:31;;;;;;;7.50;2.90;;;18.00;58.30;;;18.39;42.18;95265.75;4998516;28;20505;-61
2023/10/10 02:10:12;;;;;;;16.00;3.40;;;17.90;58.20;;;18.39;41.82;95276.41;5001607;28;20449;-59
2023/10/10 02:12:39;;;;;;;4.33;2.90;;;18.00;58.10;;;18.39;41.67;95278.25;4999691;28;20482;-59
2023/10/10 02:15:11;;;;;;;5.77;2.73;;;18.00;57.80;;;18.38;41.97;95268.59;4999849;28;20461;-61
2023/10/10 02:17:41;;;;;;;9.10;2.63;;;17.90;57.50;;;18.36;41.33;95271.44;5000289;28;20502;-60
2023/10/10 02:20:33;;;;;;;13.10;2.70;;;17.90;58.00;;;18.35;41.68;95264.44;4998808;28;20468;-59
2023/10/10 02:23:09;;;;;;;7.83;2.80;;;17.90;57.50;;;18.35;41.39;95263.63;4999965;28;20474;-61
2023/10/10 02:25:40;;;;;;;5.97;3.10;;;17.90;57.50;;;18.34;41.65;95259.28;5005163;28;20532;-61
2023/10/10 02:28:20;;;;;;;11.47;2.57;;;17.90;57.70;;;18.33;41.66;95262.97;4998309;28;20971;-60
2023/10/10 02:30:51;;;;;;;7.63;2.77;;;17.90;58.00;;;18.32;42.08;95259.47;5000635;28;21020;-59
2023/10/10 02:33:30;;;;;;;13.20;2.97;;;17.90;58.20;;;18.32;42.15;95255.97;4999181;28;20496;-62
2023/10/10 02:35:57;;;;;;;3.83;2.40;;;17.90;58.20;;;18.32;41.99;95253.31;4998883;28;20513;-59
2023/10/10 02:38:31;;;;;;;7.93;2.53;;;17.90;58.20;;;18.31;42.07;95251.66;5000401;28;20494;-63
2023/10/10 02:43:56;;;;;;;14.83;3.67;;;17.90;58.20;;;18.28;42.23;95247.53;4998142;28;20449;-59
2023/10/10 02:46:33;;;;;;;8.83;2.63;;;17.90;58.20;;;18.28;42.09;95248.34;4999327;28;20474;-60
2023/10/10 02:49:09;;;;;;;9.60;3.33;;;17.80;58.10;;;18.27;42.49;95252.00;5005216;28;21027;-59
2023/10/10 02:51:41;;;;;;;6.63;2.17;;;17.80;58.10;;;18.27;42.10;95241.34;5002993;28;20565;-59
2023/10/10 02:59:51;;;;;;;13.37;2.57;;;17.80;58.10;;;18.26;41.78;95233.53;5001739;28;20970;-60
2023/10/10 03:02:29;;;;;;;15.93;3.60;;;17.80;58.10;;;18.27;42.46;95237.88;5004678;28;20508;-59
2023/10/10 03:05:07;;;;;;;12.27;3.43;;;17.90;58.20;;;18.26;42.33;95234.41;5002753;28;20688;-60
2023/10/10 03:07:35;;;;;;;4.40;2.27;;;17.80;58.10;;;18.26;42.58;95234.41;5002376;28;20480;-59
2023/10/10 03:10:23;;;;;;;10.90;3.40;;;17.80;58.30;;;18.26;42.55;95241.53;5003374;28;20545;-59
2023/10/10 03:12:51;;;;;;;6.13;2.03;;;17.80;58.90;;;18.26;42.65;95238.88;5001876;28;20454;-61
2023/10/10 03:15:30;;;;;;;8.10;3.13;;;17.80;59.80;;;18.26;42.88;95244.19;5003333;28;20442;-60
2023/10/10 03:18:17;;;;;;;10.10;2.60;;;17.80;59.30;;;18.26;43.52;95238.88;5003461;28;20481;-61
2023/10/10 03:21:12;;;;;;;5.03;2.70;;;17.80;59.50;;;18.27;43.21;95251.19;5001032;28;20502;-61
2023/10/10 03:23:52;;;;;;;12.30;2.70;;;17.80;59.90;;;18.24;44.70;95247.03;5001012;28;20470;-61
2023/10/10 03:26:34;;;;;;;7.97;2.80;;;17.80;60.90;;;18.24;44.18;95246.22;5001486;28;20461;-60
2023/10/10 03:29:04;;;;;;;13.33;2.63;;;17.80;60.30;;;18.24;43.80;95249.69;5003709;28;20449;-60
2023/10/10 03:31:41;;;;;;;9.53;2.40;;;17.80;60.80;;;18.25;44.81;95253.22;5000611;28;20470;-59
2023/10/10 03:34:19;;;;;;;8.80;2.60;;;17.80;61.50;;;18.25;44.28;95262.03;5002666;28;20824;-60
2023/10/10 03:37:04;;;;;;;4.90;2.83;;;17.80;61.50;;;18.26;44.58;95262.84;5002755;28;20905;-61
2023/10/10 03:39:43;;;;;;;5.33;3.00;;;17.80;62.00;;;18.28;45.86;95268.84;5001412;28;20446;-61
2023/10/10 05:24:26;;;;;;;24.80;4.83;;;18.60;66.60;;;19.03;47.83;95333.84;5000589;28;20429;-61
2023/10/10 05:26:56;;;;;;;16.20;4.03;;;18.60;66.60;;;19.02;47.31;95336.69;4999904;28;21006;-60
2023/10/10 05:29:24;;;;;;;7.53;4.47;;;18.60;66.70;;;19.01;48.09;95345.69;5001506;28;20455;-61
2023/10/10 05:31:52;;;;;;;10.83;4.07;;;18.60;66.90;;;18.97;47.61;95338.06;5002509;28;20478;-59
2023/10/10 05:34:22;;;;;;;10.80;3.70;;;18.60;67.10;;;18.98;47.75;95353.06;4999802;28;20485;-59
2023/10/10 05:36:52;;;;;;;8.40;3.30;;;18.50;67.30;;;18.96;48.19;95355.06;5000972;28;20473;-60
2023/10/10 05:39:21;;;;;;;16.33;4.20;;;18.50;67.10;;;18.94;48.24;95349.06;4999517;28;20546;-61
2023/10/10 05:41:48;;;;;;;12.50;3.80;;;18.50;67.30;;;18.93;48.39;95354.59;5000730;28;20477;-60
2023/10/10 05:44:16;;;;;;;6.90;3.30;;;18.50;67.30;;;18.91;47.85;95349.44;4999192;28;20476;-60
2023/10/10 05:46:43;;;;;;;14.60;4.33;;;18.50;67.60;;;18.85;48.30;95344.81;5000690;28;20479;-60
2023/10/10 05:49:11;;;;;;;11.57;4.43;;;18.50;67.60;;;18.92;48.42;95350.28;4999544;28;20458;-60
2023/10/10 05:51:38;;;;;;;13.37;4.23;;;18.50;68.40;;;18.95;47.94;95341.94;5000788;28;20565;-60
2023/10/10 05:54:10;;;;;;;13.10;4.10;;;18.50;67.90;;;19.00;48.39;95347.53;4999837;28;20776;-59
2023/10/10 05:56:38;;;;;;;11.37;3.67;;;18.50;67.90;;;19.06;48.23;95338.00;5000833;28;20878;-60
2023/10/10 05:59:06;;;;;;;12.03;5.10;;;18.60;67.80;;;19.10;48.43;95341.94;4999138;28;20493;-59
2023/10/10 06:01:36;;;;;;;6.13;3.40;;;18.70;67.70;;;19.19;47.63;95345.38;5000613;28;20522;-59
2023/10/10 06:04:03;;;;;;;10.80;3.90;;;18.70;67.60;;;19.30;48.03;95344.91;4998817;28;20490;-60
2023/10/10 06:06:31;;;;;;;18.23;3.80;;;18.80;67.60;;;19.39;47.83;95340.34;5000685;28;21031;-58
2023/10/10 06:09:01;;;;;;;10.63;4.10;;;18.90;67.30;;;19.46;47.35;95343.94;4998931;28;20463;-61
2023/10/10 06:11:32;;;;;;;15.33;4.40;;;19.00;67.90;;;19.48;47.62;95345.38;5001165;28;20485;-58
2023/10/10 06:14:00;;;;;;;9.10;4.33;;;19.00;67.00;;;19.50;47.55;95353.22;4998441;28;20443;-60
2023/10/10 06:16:27;;;;;;;5.30;3.90;;;19.00;66.80;;;19.50;47.44;95350.53;5001308;28;20478;-60
2023/10/10 06:18:55;;;;;;;11.13;4.27;;;19.00;66.80;;;19.50;47.67;95342.53;4998313;28;20544;-59
2023/10/10 06:21:22;;;;;;;7.20;3.23;;;19.10;67.30;;;19.51;47.34;95349.53;5000259;28;20486;-59
2023/10/10 06:23:49;;;;;;;6.63;3.30;;;19.10;67.00;;;19.51;47.62;95354.88;4998512;28;20509;-59
2023/10/10 06:26:21;;;;;;;11.90;3.37;;;19.10;67.40;;;19.52;47.78;95361.88;5000425;28;20481;-58
2023/10/10 06:28:53;;;;;;;12.60;3.43;;;19.10;67.20;;;19.51;47.92;95368.22;4998270;28;20509;-59
2023/10/10 06:31:20;;;;;;;20.50;3.67;;;19.10;67.40;;;19.52;47.77;95362.69;5001287;28;20524;-61
2023/10/10 06:33:49;;;;;;;14.93;4.23;;;19.10;67.30;;;19.62;47.85;95366.94;4997800;28;20959;-62
2023/10/10 06:36:33;;;;;;;6.30;3.90;;;19.20;67.70;;;19.90;48.10;95369.00;5001068;28;20531;-59
2023/10/10 06:39:18;;;;;;;6.67;3.07;;;19.40;68.30;;;20.33;47.23;95369.91;4999725;28;20525;-60
2023/10/10 06:41:49;;;;;;;13.77;4.23;;;19.70;67.90;;;20.66;46.69;95368.66;4997273;28;20537;-60
2023/10/10 06:44:31;;;;;;;4.77;3.17;;;20.00;66.70;;;20.76;46.03;95364.66;4997963;28;20505;-61
2023/10/10 06:46:59;;;;;;;9.60;3.10;;;20.20;65.80;;;20.77;46.07;95363.63;4998839;28;20473;-59
2023/10/10 06:49:43;;;;;;;8.17;3.63;;;20.30;66.30;;;20.77;45.77;95374.34;5000507;28;20458;-60
2023/10/10 06:52:17;;;;;;;6.00;3.30;;;20.30;65.40;;;20.73;45.69;95373.06;4997489;28;21029;-60
2023/10/10 06:54:53;;;;;;;8.30;3.70;;;20.30;65.30;;;20.68;45.92;95363.94;4999885;28;20441;-60
2023/10/10 06:57:35;;;;;;;7.80;4.00;;;20.20;65.50;;;20.64;46.48;95363.47;4999378;28;21010;-60
2023/10/10 07:00:27;;;;;;;13.23;3.60;;;20.20;65.60;;;20.66;46.49;95372.16;4997615;28;20446;-58
2023/10/10 07:02:55;;;;;;;7.77;4.27;;;20.20;65.80;;;20.72;46.40;95374.06;4997728;28;20458;-59
2023/10/10 07:05:26;;;;;;;9.37;3.70;;;20.30;66.20;;;20.84;46.28;95371.72;5000655;28;20531;-60
2023/10/10 07:07:58;;;;;;;9.93;4.43;;;20.30;66.00;;;20.91;46.64;95383.31;4998218;28;20513;-60
2023/10/10 07:10:26;;;;;;;12.13;3.57;;;20.40;65.70;;;20.97;46.35;95384.38;5000926;28;20442;-60
2023/10/10 07:12:57;;;;;;;6.10;3.27;;;20.50;66.00;;;21.01;46.07;95377.63;4997780;28;20451;-60
2023/10/10 07:15:26;;;;;;;19.43;3.43;;;20.60;65.70;;;21.03;46.09;95375.56;4997843;28;20975;-60
2023/10/10 07:18:04;;;;;;;10.53;3.60;;;20.50;65.50;;;21.06;46.13;95375.19;5000141;28;20489;-59
2023/10/10 07:23:20;;;;;;;11.00;4.30;;;20.60;65.80;;;21.03;46.27;95378.25;4997408;28;20481;-60
2023/10/10 07:25:58;;;;;;;16.60;4.40;;;20.60;65.80;;;20.98;46.11;95366.50;5000764;28;20469;-61
2023/10/10 07:28:27;;;;;;;8.33;3.40;;;20.50;65.70;;;20.93;46.38;95369.75;5000065;28;20438;-61
2023/10/10 07:30:56;;;;;;;7.33;3.50;;;20.50;66.00;;;20.92;46.79;95376.09;4999245;28;20473;-59
2023/10/10 07:33:26;;;;;;;6.17;3.33;;;20.50;66.20;;;20.93;46.42;95377.78;4999856;28;20462;-60
2023/10/10 07:35:54;;;;;;;4.80;3.20;;;20.50;66.30;;;20.94;47.09;95377.56;5001679;28;20470;-60
2023/10/10 07:38:27;;;;;;;7.23;3.97;;;20.50;66.50;;;20.97;46.70;95381.69;5002402;28;20490;-59
2023/10/10 07:40:55;;;;;;;16.93;4.30;;;20.50;66.50;;;21.01;46.66;95384.84;5001499;28;20907;-60
2023/10/10 07:43:26;;;;;;;9.20;4.63;;;20.50;66.70;;;21.09;46.54;95385.50;5003464;28;20845;-59
2023/10/10 07:45:55;;;;;;;11.87;3.90;;;20.60;67.00;;;21.21;46.63;95387.66;5000475;28;20533;-61
2023/10/10 07:48:39;;;;;;;11.30;3.50;;;20.70;67.10;;;21.46;46.84;95380.84;5003442;28;20545;-61
2023/10/10 07:51:07;;;;;;;9.43;3.40;;;20.90;66.80;;;21.82;45.94;95379.88;5001667;28;20470;-61
2023/10/10 07:53:43;;;;;;;14.60;5.00;;;21.30;66.50;;;22.13;45.85;95370.56;5002219;28;20457;-59
2023/10/10 07:56:11;;;;;;;19.17;4.13;;;21.60;66.00;;;22.43;45.06;95381.00;5002317;28;20526;-61
2023/10/10 07:58:44;;;;;;;13.00;4.07;;;21.80;65.20;;;22.72;45.35;95387.06;5001247;28;20493;-60
2023/10/10 08:01:17;;;;;;;26.77;8.10;;;22.20;65.20;;;22.94;44.09;95374.31;5003010;28;20473;-59
2023/10/10 08:03:47;;;;;;;20.10;4.90;;;22.30;64.00;;;22.97;44.16;95381.94;5000153;28;20482;-58
2023/10/10 08:06:21;;;;;;;17.20;6.63;;;22.50;63.00;;;22.91;44.01;95388.97;5003793;28;20481;-59
2023/10/10 08:08:56;;;;;;;37.57;6.87;;;22.40;62.50;;;22.80;43.43;95386.88;5000829;28;20455;-59
2023/10/10 08:11:35;;;;;;;20.00;5.10;;;22.40;62.40;;;22.65;44.20;95389.75;5001855;28;20481;-61
2023/10/10 08:14:06;;;;;;;12.80;4.47;;;22.20;62.80;;;22.48;44.19;95391.13;5002744;28;20445;-58
2023/10/10 08:16:35;;;;;;;13.63;4.03;;;22.10;62.70;;;22.26;44.24;95383.19;5000168;28;20462;-60
2023/10/10 08:19:06;;;;;;;14.53;4.67;;;21.90;63.10;;;22.09;44.39;95396.13;5003198;28;20493;-61
2023/10/10 08:21:38;;;;;;;10.17;4.20;;;21.70;63.50;;;22.00;44.58;95386.59;4999693;28;20482;-60
2023/10/10 08:24:07;;;;;;;19.80;4.60;;;21.60;63.90;;;21.94;45.00;95382.03;5002897;28;20473;-59
2023/10/10 08:26:40;;;;;;;14.60;5.10;;;21.50;64.20;;;21.93;45.60;95380.34;5000010;28;20502;-61
2023/10/10 08:29:08;;;;;;;26.50;4.73;;;21.50;64.50;;;21.92;45.25;95386.72;5002090;28;20446;-59
2023/10/10 08:31:37;;;;;;;13.40;4.60;;;21.50;64.60;;;21.96;45.32;95383.47;5000358;28;21075;-59
2023/10/10 08:34:04;;;;;;;19.33;4.70;;;21.50;64.60;;;22.05;44.70;95388.66;5001872;28;20492;-60
2023/10/10 08:36:32;;;;;;;25.33;5.57;;;21.60;64.30;;;22.18;44.89;95380.69;5000659;28;20466;-61
2023/10/10 08:39:12;;;;;;;51.77;5.50;;;21.60;64.30;;;22.37;44.58;95381.84;5001993;28;20572;-58
2023/10/10 08:41:39;;;;;;;20.60;5.13;;;21.80;64.10;;;22.61;44.37;95382.31;5002101;28;21019;-60
2023/10/10 08:44:06;;;;;;;30.47;4.57;;;22.00;64.00;;;22.85;44.29;95384.44;5000421;28;20538;-60
2023/10/10 08:46:40;;;;;;;12.53;4.80;;;22.30;64.00;;;23.22;43.49;95390.28;5001879;28;20474;-60
2023/10/10 08:49:09;;;;;;;14.77;5.10;;;22.50;63.30;;;23.42;42.99;95389.44;5000109;28;20473;-59
2023/10/10 08:51:39;;;;;;;21.67;4.67;;;22.80;62.90;;;23.46;42.81;95393.38;5002377;28;20486;-59
2023/10/10 08:54:09;;;;;;;10.20;4.90;;;22.90;62.00;;;23.36;43.45;95396.47;4999381;28;20458;-58
2023/10/10 08:56:38;;;;;;;11.13;4.80;;;22.90;62.70;;;23.13;43.40;95388.81;5002629;28;20568;-60
2023/10/10 08:59:07;;;;;;;14.17;4.87;;;22.70;61.70;;;22.85;43.29;95391.63;4999181;28;20934;-61
2023/10/10 09:01:35;;;;;;;11.13;4.83;;;22.50;62.00;;;22.65;43.61;95394.25;4999528;28;20545;-61
2023/10/10 09:04:04;;;;;;;17.03;6.17;;;22.20;62.20;;;22.46;44.52;95391.31;4999058;28;20451;-60
2023/10/10 09:06:44;;;;;;;9.30;4.60;;;22.10;62.60;;;22.29;44.39;95396.19;5002771;28;20547;-59
2023/10/10 09:11:56;;;;;;;10.20;4.47;;;21.70;63.60;;;22.01;44.97;95398.94;4999658;28;20482;-60
2023/10/10 09:14:39;;;;;;;7.20;3.63;;;21.60;64.20;;;21.89;45.77;95401.34;5002598;28;20826;-60
2023/10/10 09:17:11;;;;;;;13.40;4.90;;;21.50;64.60;;;21.78;45.57;95404.56;5000387;28;20509;-60
2023/10/10 09:19:46;;;;;;;16.67;4.80;;;21.40;65.00;;;21.70;45.55;95405.56;5000190;28;20841;-61
2023/10/10 09:22:28;;;;;;;13.13;3.60;;;21.30;64.70;;;21.65;46.00;95410.69;5001556;28;20576;-61
2023/10/10 09:24:56;;;;;;;15.93;4.40;;;21.20;65.10;;;21.59;46.00;95408.78;4999483;28;20454;-60
2023/10/10 09:27:27;;;;;;;8.40;3.93;;;21.20;65.50;;;21.52;46.24;95408.75;5002347;28;20474;-60
2023/10/10 09:30:15;;;;;;;12.50;3.67;;;21.10;65.90;;;21.47;46.97;95409.28;5002567;28;20469;-61
2023/10/10 09:32:42;;;;;;;8.73;3.37;;;21.00;65.90;;;21.43;46.46;95407.19;4998046;28;20495;-61
2023/10/10 09:35:10;;;;;;;7.23;3.70;;;21.00;66.10;;;21.39;46.43;95414.75;5002136;28;20460;-60
2023/10/10 09:37:42;;;;;;;16.27;4.60;;;20.90;66.20;;;21.40;46.52;95408.41;4998499;28;20481;-59
2023/10/10 09:40:15;;;;;;;6.63;3.40;;;20.90;66.30;;;21.44;46.55;95415.03;5001637;28;20489;-59
2023/10/10 09:42:53;;;;;;;10.13;3.93;;;20.90;66.30;;;21.48;46.96;95405.56;4998897;28;20505;-59
2023/10/10 09:45:52;;;;;;;10.80;4.00;;;21.00;66.70;;;21.54;46.08;95413.91;4999402;28;20442;-60
2023/10/10 09:48:28;;;;;;;7.50;3.33;;;21.00;66.20;;;21.64;46.47;95401.81;4999635;28;20460;-59
2023/10/10 09:51:15;;;;;;;8.37;3.00;;;21.10;66.50;;;21.79;46.14;95395.53;5001403;28;20469;-59
2023/10/10 09:53:46;;;;;;;7.40;3.20;;;21.20;66.20;;;22.03;46.20;95380.84;4999787;28;20439;-59
2023/10/10 09:56:16;;;;;;;6.27;3.17;;;21.50;66.50;;;22.29;45.78;95379.28;4998972;28;20473;-61
2023/10/10 09:58:44;;;;;;;9.23;3.30;;;21.70;66.20;;;22.47;45.35;95378.75;5000514;28;20501;-59
2023/10/10 10:01:22;;;;;;;5.60;2.97;;;21.90;65.30;;;22.56;45.27;95377.56;4999178;28;20478;-59
2023/10/10 10:03:59;;;;;;;6.50;2.97;;;22.00;64.70;;;22.55;44.96;95376.72;5001826;28;20459;-59
2023/10/10 10:07:12;;;;;;;7.80;3.07;;;22.00;64.20;;;22.54;44.71;95377.75;5002662;28;20866;-61
2023/10/10 10:10:16;;;;;;;8.20;3.87;;;22.00;64.10;;;22.52;45.05;95373.59;4996791;28;20536;-59
2023/10/10 10:13:02;;;;;;;5.77;2.93;;;22.00;64.20;;;22.54;44.53;95366.19;4998783;28;20478;-58
2023/10/10 10:15:48;;;;;;;5.57;3.17;;;22.00;64.20;;;22.55;45.29;95367.84;4999679;28;20820;-60
2023/10/10 10:18:26;;;;;;;4.10;2.93;;;22.00;64.20;;;22.58;44.32;95363.94;4998645;28;20469;-59
2023/10/10 10:21:13;;;;;;;7.10;3.00;;;22.00;63.80;;;22.55;44.97;95357.13;4999690;28;20454;-60
2023/10/10 10:23:45;;;;;;;4.43;3.43;;;22.10;64.00;;;22.54;44.36;95363.50;4997944;28;20516;-59
2023/10/10 10:26:22;;;;;;;8.00;3.10;;;22.00;64.00;;;22.51;44.38;95354.03;5000872;28;20466;-59
2023/10/10 10:28:56;;;;;;;6.90;3.03;;;22.00;64.00;;;22.45;44.77;95362.88;4999495;28;20453;-61
2023/10/10 10:31:29;;;;;;;6.67;2.77;;;22.00;64.00;;;22.39;44.96;95366.38;4998968;28;20856;-60
2023/10/10 10:34:10;;;;;;;3.50;2.30;;;21.90;64.00;;;22.31;44.91;95361.19;5000910;28;20445;-59
2023/10/10 10:36:42;;;;;;;5.70;2.80;;;21.80;64.10;;;22.23;45.15;95354.13;4998515;28;20478;-59
2023/10/10 10:39:21;;;;;;;3.63;2.13;;;21.80;64.20;;;22.16;45.17;95354.09;5000203;28;20580;-60
2023/10/10 10:41:54;;;;;;;7.73;3.03;;;21.70;64.60;;;22.06;45.13;95353.66;5000880;28;20552;-60
2023/10/10 10:44:29;;;;;;;11.93;2.70;;;21.60;65.20;;;22.00;45.51;95343.72;4999368;28;20469;-59
2023/10/10 10:46:57;;;;;;;11.80;2.87;;;21.60;64.70;;;21.96;45.60;95343.28;4999552;28;21132;-60
2023/10/10 10:49:28;;;;;;;9.47;3.30;;;21.50;64.90;;;21.94;45.46;95344.53;5001108;28;20910;-60
2023/10/10 10:54:37;;;;;;;4.97;3.43;;;21.40;64.80;;;21.85;45.46;95339.31;4998647;28;20464;-61
2023/10/10 10:57:06;;;;;;;4.30;3.40;;;21.40;64.90;;;21.81;45.59;95340.75;5000107;28;20999;-61
2023/10/10 10:59:38;;;;;;;5.90;3.60;;;21.30;64.90;;;21.77;45.85;95342.16;4998786;28;21057;-61
2023/10/10 11:02:15;;;;;;;8.63;2.87;;;21.30;65.00;;;21.73;45.77;95332.88;5001050;28;20847;-62
2023/10/10 11:04:49;;;;;;;14.63;3.03;;;21.30;65.40;;;21.70;45.86;95338.63;4998432;28;20549;-62
2023/10/10 11:07:26;;;;;;;8.00;3.20;;;21.20;65.00;;;21.67;45.83;95339.00;5000987;28;20469;-61
2023/10/10 11:09:54;;;;;;;3.27;2.63;;;21.20;65.60;;;21.64;45.83;95339.41;5005282;28;20448;-60
2023/10/10 11:12:31;;;;;;;7.43;2.97;;;21.20;65.10;;;21.61;45.50;95334.44;5003487;28;20768;-60
2023/10/10 11:15:04;;;;;;;6.77;2.77;;;21.10;65.20;;;21.58;45.82;95341.03;5001679;28;20454;-60
2023/10/10 11:17:37;;;;;;;8.50;3.60;;;21.10;65.10;;;21.57;46.06;95338.56;5004803;28;20479;-61
2023/10/10 11:20:26;;;;;;;10.53;2.90;;;21.10;65.20;;;21.53;45.87;95332.75;5001767;28;20525;-62
2023/10/10 11:22:57;;;;;;;8.00;3.50;;;21.00;65.20;;;21.52;45.92;95338.28;5001434;28;20450;-59
2023/10/10 11:25:41;;;;;;;18.13;3.40;;;21.00;65.50;;;21.49;45.81;95331.50;5004968;28;20450;-59
2023/10/10 11:28:21;;;;;;;6.53;3.17;;;21.00;65.40;;;21.47;46.19;95339.69;5003207;28;20439;-61
2023/10/10 11:30:51;;;;;;;2.70;2.50;;;21.00;65.50;;;21.47;45.91;95339.69;5001236;28;20470;-60
2023/10/10 11:33:46;;;;;;;6.10;2.50;;;21.00;65.60;;;21.44;46.13;95329.38;5000832;28;20451;-61
2023/10/10 11:36:29;;;;;;;5.37;3.07;;;20.90;65.50;;;21.40;46.18;95338.00;5004625;28;20558;-60
2023/10/10 11:39:15;;;;;;;4.20;2.70;;;20.90;65.50;;;21.35;46.00;95335.91;5002171;28;20446;-59
2023/10/10 11:41:45;;;;;;;9.33;2.87;;;20.90;65.60;;;21.31;46.29;95329.28;5000979;28;20498;-61
2023/10/10 11:44:19;;;;;;;3.13;2.40;;;20.90;65.70;;;21.29;46.11;95329.47;5004388;28;20449;-60
2023/10/10 11:46:48;;;;;;;7.67;3.13;;;20.80;65.60;;;21.27;46.19;95323.50;5001842;28;20478;-61
2023/10/10 11:49:16;;;;;;;4.13;2.70;;;20.80;65.80;;;21.25;46.12;95332.75;5003453;28;20458;-62
2023/10/10 11:51:43;;;;;;;3.43;2.90;;;20.80;65.70;;;21.23;46.06;95329.44;5001521;28;20565;-62
2023/10/10 11:54:10;;;;;;;8.57;3.50;;;20.70;65.60;;;21.21;46.10;95331.47;5003570;28;20446;-60
2023/10/10 11:56:38;;;;;;;12.87;3.57;;;20.70;65.60;;;21.19;46.27;95330.84;5000906;28;20900;-62
2023/10/10 11:59:09;;;;;;;16.70;3.10;;;20.70;65.70;;;21.17;46.16;95328.38;5003411;28;20449;-62
2023/10/10 12:01:51;;;;;;;7.83;3.90;;;20.70;65.70;;;21.14;46.16;95323.41;5001603;28;20474;-60
2023/10/10 12:04:30;;;;;;;9.30;3.73;;;20.70;65.70;;;21.12;46.00;95320.94;5000954;28;20839;-61
2023/10/10 12:07:01;;;;;;;6.10;2.63;;;20.60;65.60;;;21.10;46.47;95328.31;5000716;28;20497;-61
2023/10/10 12:09:29;;;;;;;6.87;3.40;;;20.60;65.50;;;21.07;46.11;95320.69;5003683;28;20504;-60
2023/10/10 12:12:01;;;;;;;12.93;2.70;;;20.60;65.40;;;21.05;45.92;95325.41;5000581;28;20959;-59
2023/10/10 12:14:30;;;;;;;10.10;2.77;;;20.60;65.30;;;21.03;46.04;95322.09;5003130;28;20457;-61
2023/10/10 12:16:59;;;;;;;6.83;2.80;;;20.60;65.40;;;21.00;46.17;95322.47;5001296;28;21334;-60
2023/10/10 12:19:29;;;;;;;14.73;3.30;;;20.50;65.50;;;20.97;46.14;95322.03;5001567;28;21087;-61
2023/10/10 12:22:07;;;;;;;4.73;2.30;;;20.50;65.40;;;20.94;46.02;95325.91;5001557;28;20569;-59
2023/10/10 12:24:35;;;;;;;8.60;2.50;;;20.50;65.50;;;20.92;46.17;95325.31;5000625;28;20869;-62
2023/10/10 12:27:07;;;;;;;4.90;2.90;;;20.50;65.60;;;20.89;46.17;95331.84;5002917;28;20481;-61
2023/10/10 12:29:39;;;;;;;6.93;2.70;;;20.40;65.30;;;20.86;46.07;95326.88;5000750;28;20542;-61
2023/10/10 12:32:18;;;;;;;6.00;2.50;;;20.40;65.20;;;20.86;45.88;95328.75;5003160;28;20531;-59
2023/10/10 12:34:46;;;;;;;11.27;2.43;;;20.40;65.20;;;20.86;46.22;95326.06;5003282;28;20466;-62
2023/10/10 12:37:15;;;;;;;6.40;2.10;;;20.40;65.40;;;20.83;46.24;95331.81;5001762;28;20544;-58
2023/10/10 12:39:43;;;;;;;15.93;2.60;;;20.40;65.40;;;20.83;46.21;95319.25;5000917;28;20534;-60